sensor_id;sensor_type;location;lat;lon;timestamp;P1;P2;P0
79141;PMS5003;68550;-26.480;29.234;2023-04-03T00:01:39;23;23;
79141;PMS5003;68550;-26.480;29.234;2023-04-03T00:04:05;24;24;
79141;PMS5003;68550;-26.480;29.234;2023-04-03T00:06:30;25;25;
79141;PMS5003;68550;-26.480;29.234;2023-04-03T00:08:55;28;27;
79141;PMS5003;68550;-26.480;29.234;2023-04-03T00:11:21;27;26;
79141;PMS5003;68550;-26.480;29.234;2023-04-03T00:16:12;27;27;
79141;PMS5003;68550;-26.480;29.234;2023-04-03T00:21:03;26;25;
79141;PMS5003;68550;-26.480;29.234;2023-04-03T00:23:28;26;26;
79141;PMS5003;68550;-26.480;29.234;2023-04-03T00:25:53;28;27;
79141;PMS5003;68550;-26.480;29.234;2023-04-03T00:28:29;30;27;
79141;PMS5003;68550;-26.480;29.234;2023-04-03T00:33:23;26;26;
79141;PMS5003;68550;-26.480;29.234;2023-04-03T00:38:09;25;25;
79141;PMS5003;68550;-26.480;29.234;2023-04-03T00:40:27;25;25;
79141;PMS5003;68550;-26.480;29.234;2023-04-03T00:42:54;25;25;
79141;PMS5003;68550;-26.480;29.234;2023-04-03T00:59:50;25;25;
79141;PMS5003;68550;-26.480;29.234;2023-04-03T01:56:22;27;27;
79141;PMS5003;68550;-26.480;29.234;2023-04-03T01:58:47;30;30;
79141;PMS5003;68550;-26.480;29.234;2023-04-03T02:01:08;29;29;
79141;PMS5003;68550;-26.480;29.234;2023-04-03T02:03:33;28;28;
79141;PMS5003;68550;-26.480;29.234;2023-04-03T02:05:58;30;30;
79141;PMS5003;68550;-26.480;29.234;2023-04-03T02:08:24;26;26;
79141;PMS5003;68550;-26.480;29.234;2023-04-03T02:10:49;23;22;
79141;PMS5003;68550;-26.480;29.234;2023-04-03T02:13:15;26;26;
79141;PMS5003;68550;-26.480;29.234;2023-04-03T02:15:40;26;26;
79141;PMS5003;68550;-26.480;29.234;2023-04-03T02:18:06;31;30;
79141;PMS5003;68550;-26.480;29.234;2023-04-03T02:27:48;26;26;
79141;PMS5003;68550;-26.480;29.234;2023-04-03T02:30:14;26;25;
79141;PMS5003;68550;-26.480;29.234;2023-04-03T02:32:41;24;24;
79141;PMS5003;68550;-26.480;29.234;2023-04-03T02:37:30;30;29;
79141;PMS5003;68550;-26.480;29.234;2023-04-03T02:39:56;27;27;
79141;PMS5003;68550;-26.480;29.234;2023-04-03T02:42:21;31;31;
79141;PMS5003;68550;-26.480;29.234;2023-04-03T02:44:47;25;25;
79141;PMS5003;68550;-26.480;29.234;2023-04-03T02:47:13;30;28;
79141;PMS5003;68550;-26.480;29.234;2023-04-03T02:49:37;26;26;
79141;PMS5003;68550;-26.480;29.234;2023-04-03T02:56:54;32;31;
79141;PMS5003;68550;-26.480;29.234;2023-04-03T03:05:13;19;19;
79141;PMS5003;68550;-26.480;29.234;2023-04-03T03:10:02;31;31;
79141;PMS5003;68550;-26.480;29.234;2023-04-03T03:12:27;26;25;
79141;PMS5003;68550;-26.480;29.234;2023-04-03T03:14:52;25;25;
79141;PMS5003;68550;-26.480;29.234;2023-04-03T03:17:17;27;27;
79141;PMS5003;68550;-26.480;29.234;2023-04-03T03:19:43;26;26;
79141;PMS5003;68550;-26.480;29.234;2023-04-03T03:22:08;30;30;
79141;PMS5003;68550;-26.480;29.234;2023-04-03T03:24:33;25;25;
79141;PMS5003;68550;-26.480;29.234;2023-04-03T03:26:59;25;25;
79141;PMS5003;68550;-26.480;29.234;2023-04-03T03:29:24;25;25;
79141;PMS5003;68550;-26.480;29.234;2023-04-03T03:31:49;31;31;
79141;PMS5003;68550;-26.480;29.234;2023-04-03T03:34:14;25;25;
79141;PMS5003;68550;-26.480;29.234;2023-04-03T03:36:42;23;23;
79141;PMS5003;68550;-26.480;29.234;2023-04-03T03:39:05;27;27;
79141;PMS5003;68550;-26.480;29.234;2023-04-03T03:41:31;28;28;
79141;PMS5003;68550;-26.480;29.234;2023-04-03T03:51:18;25;24;
79141;PMS5003;68550;-26.480;29.234;2023-04-03T03:53:40;33;32;
79141;PMS5003;68550;-26.480;29.234;2023-04-03T03:56:04;26;26;
79141;PMS5003;68550;-26.480;29.234;2023-04-03T03:58:28;28;27;
79141;PMS5003;68550;-26.480;29.234;2023-04-03T04:10:35;31;30;
79141;PMS5003;68550;-26.480;29.234;2023-04-03T04:22:43;29;29;
79141;PMS5003;68550;-26.480;29.234;2023-04-03T04:25:09;29;29;
79141;PMS5003;68550;-26.480;29.234;2023-04-03T04:37:17;28;27;
79141;PMS5003;68550;-26.480;29.234;2023-04-03T04:51:49;31;31;
79141;PMS5003;68550;-26.480;29.234;2023-04-03T05:08:49;35;35;
79141;PMS5003;68550;-26.480;29.234;2023-04-03T05:16:03;32;31;
79141;PMS5003;68550;-26.480;29.234;2023-04-03T05:23:19;28;28;
79141;PMS5003;68550;-26.480;29.234;2023-04-03T05:25:44;27;27;
79141;PMS5003;68550;-26.480;29.234;2023-04-03T05:35:30;29;29;
79141;PMS5003;68550;-26.480;29.234;2023-04-03T05:37:51;27;27;
79141;PMS5003;68550;-26.480;29.234;2023-04-03T05:47:33;30;30;
79141;PMS5003;68550;-26.480;29.234;2023-04-03T05:49:58;26;26;
79141;PMS5003;68550;-26.480;29.234;2023-04-03T05:52:25;26;26;
79141;PMS5003;68550;-26.480;29.234;2023-04-03T05:54:49;29;29;
79141;PMS5003;68550;-26.480;29.234;2023-04-03T05:57:14;31;31;
79141;PMS5003;68550;-26.480;29.234;2023-04-03T05:59:39;27;27;
79141;PMS5003;68550;-26.480;29.234;2023-04-03T06:16:38;26;26;
79141;PMS5003;68550;-26.480;29.234;2023-04-03T06:19:03;26;26;
79141;PMS5003;68550;-26.480;29.234;2023-04-03T06:21:30;27;27;
79141;PMS5003;68550;-26.480;29.234;2023-04-03T06:23:54;26;25;
79141;PMS5003;68550;-26.480;29.234;2023-04-03T06:26:20;28;28;
79141;PMS5003;68550;-26.480;29.234;2023-04-03T06:28:45;24;24;
79141;PMS5003;68550;-26.480;29.234;2023-04-03T06:31:11;28;27;
79141;PMS5003;68550;-26.480;29.234;2023-04-03T06:33:37;21;21;
79141;PMS5003;68550;-26.480;29.234;2023-04-03T06:43:18;23;22;
79141;PMS5003;68550;-26.480;29.234;2023-04-03T07:05:06;24;24;
79141;PMS5003;68550;-26.480;29.234;2023-04-03T07:12:22;24;23;
79141;PMS5003;68550;-26.480;29.234;2023-04-03T07:14:47;22;22;
79141;PMS5003;68550;-26.480;29.234;2023-04-03T07:17:12;22;22;
79141;PMS5003;68550;-26.480;29.234;2023-04-03T07:19:37;23;23;
79141;PMS5003;68550;-26.480;29.234;2023-04-03T07:22:02;24;24;
79141;PMS5003;68550;-26.480;29.234;2023-04-03T07:24:28;22;22;
79141;PMS5003;68550;-26.480;29.234;2023-04-03T07:31:56;26;25;
79141;PMS5003;68550;-26.480;29.234;2023-04-03T07:34:11;22;21;
79141;PMS5003;68550;-26.480;29.234;2023-04-03T07:36:36;21;21;
79141;PMS5003;68550;-26.480;29.234;2023-04-03T07:39:01;23;22;
79141;PMS5003;68550;-26.480;29.234;2023-04-03T08:30:05;20;20;
79141;PMS5003;68550;-26.480;29.234;2023-04-03T08:39:37;27;26;
79141;PMS5003;68550;-26.480;29.234;2023-04-03T08:42:05;22;22;
79141;PMS5003;68550;-26.480;29.234;2023-04-03T09:05:20;22;22;
79141;PMS5003;68550;-26.480;29.234;2023-04-03T09:12:37;18;18;
79141;PMS5003;68550;-26.480;29.234;2023-04-03T09:15:02;24;23;
79141;PMS5003;68550;-26.480;29.234;2023-04-03T09:17:31;20;19;
79141;PMS5003;68550;-26.480;29.234;2023-04-03T09:31:59;21;21;
79141;PMS5003;68550;-26.480;29.234;2023-04-03T09:34:24;21;21;
79141;PMS5003;68550;-26.480;29.234;2023-04-03T09:36:48;22;21;
79141;PMS5003;68550;-26.480;29.234;2023-04-03T09:41:39;18;18;
79141;PMS5003;68550;-26.480;29.234;2023-04-03T09:44:17;18;18;
79141;PMS5003;68550;-26.480;29.234;2023-04-03T09:46:29;21;21;
79141;PMS5003;68550;-26.480;29.234;2023-04-03T09:48:55;19;19;
79141;PMS5003;68550;-26.480;29.234;2023-04-03T09:51:19;20;20;
79141;PMS5003;68550;-26.480;29.234;2023-04-03T09:53:44;18;18;
79141;PMS5003;68550;-26.480;29.234;2023-04-03T10:25:17;18;18;
79141;PMS5003;68550;-26.480;29.234;2023-04-03T10:27:42;18;18;
79141;PMS5003;68550;-26.480;29.234;2023-04-03T10:30:10;20;20;
79141;PMS5003;68550;-26.480;29.234;2023-04-03T11:04:10;16;15;
79141;PMS5003;68550;-26.480;29.234;2023-04-03T11:30:50;16;16;
79141;PMS5003;68550;-26.480;29.234;2023-04-03T11:33:22;19;18;
79141;PMS5003;68550;-26.480;29.234;2023-04-03T11:35:42;18;18;
79141;PMS5003;68550;-26.480;29.234;2023-04-03T11:47:46;17;17;
79141;PMS5003;68550;-26.480;29.234;2023-04-03T11:50:14;16;16;
79141;PMS5003;68550;-26.480;29.234;2023-04-03T12:04:44;17;17;
79141;PMS5003;68550;-26.480;29.234;2023-04-03T12:16:51;18;17;
79141;PMS5003;68550;-26.480;29.234;2023-04-03T12:19:29;17;17;
79141;PMS5003;68550;-26.480;29.234;2023-04-03T12:43:39;19;19;
79141;PMS5003;68550;-26.480;29.234;2023-04-03T13:12:34;19;19;
79141;PMS5003;68550;-26.480;29.234;2023-04-03T13:14:59;18;18;
79141;PMS5003;68550;-26.480;29.234;2023-04-03T13:17:24;21;21;
79141;PMS5003;68550;-26.480;29.234;2023-04-03T13:19:50;19;19;
79141;PMS5003;68550;-26.480;29.234;2023-04-03T13:22:19;19;19;
79141;PMS5003;68550;-26.480;29.234;2023-04-03T13:24:40;20;20;
79141;PMS5003;68550;-26.480;29.234;2023-04-03T13:31:56;17;17;
79141;PMS5003;68550;-26.480;29.234;2023-04-03T13:34:22;16;16;
79141;PMS5003;68550;-26.480;29.234;2023-04-03T13:36:55;14;14;
79141;PMS5003;68550;-26.480;29.234;2023-04-03T13:41:38;17;17;
79141;PMS5003;68550;-26.480;29.234;2023-04-03T13:46:28;14;13;
79141;PMS5003;68550;-26.480;29.234;2023-04-03T14:10:41;12;11;
79141;PMS5003;68550;-26.480;29.234;2023-04-03T14:22:48;11;11;
79141;PMS5003;68550;-26.480;29.234;2023-04-03T14:25:13;13;13;
79141;PMS5003;68550;-26.480;29.234;2023-04-03T14:27:39;14;14;
79141;PMS5003;68550;-26.480;29.234;2023-04-03T14:30:04;10;10;
79141;PMS5003;68550;-26.480;29.234;2023-04-03T14:32:29;14;14;
79141;PMS5003;68550;-26.480;29.234;2023-04-03T14:34:54;11;11;
79141;PMS5003;68550;-26.480;29.234;2023-04-03T14:49:28;12;12;
79141;PMS5003;68550;-26.480;29.234;2023-04-03T15:18:32;16;16;
79141;PMS5003;68550;-26.480;29.234;2023-04-03T15:40:19;11;11;
79141;PMS5003;68550;-26.480;29.234;2023-04-03T15:42:44;12;12;
79141;PMS5003;68550;-26.480;29.234;2023-04-03T15:59:42;14;13;
79141;PMS5003;68550;-26.480;29.234;2023-04-03T16:28:47;15;15;
79141;PMS5003;68550;-26.480;29.234;2023-04-03T16:31:13;14;14;
79141;PMS5003;68550;-26.480;29.234;2023-04-03T16:33:38;14;14;
79141;PMS5003;68550;-26.480;29.234;2023-04-03T16:36:05;13;13;
79141;PMS5003;68550;-26.480;29.234;2023-04-03T16:38:28;13;13;
79141;PMS5003;68550;-26.480;29.234;2023-04-03T16:40:54;12;12;
79141;PMS5003;68550;-26.480;29.234;2023-04-03T16:50:35;12;12;
79141;PMS5003;68550;-26.480;29.234;2023-04-03T16:53:01;16;15;
79141;PMS5003;68550;-26.480;29.234;2023-04-03T16:55:26;83;83;
79141;PMS5003;68550;-26.480;29.234;2023-04-03T16:57:52;111;109;
79141;PMS5003;68550;-26.480;29.234;2023-04-03T17:00:18;85;82;
79141;PMS5003;68550;-26.480;29.234;2023-04-03T17:06:36;92;91;
79141;PMS5003;68550;-26.480;29.234;2023-04-03T17:09:05;94;92;
79141;PMS5003;68550;-26.480;29.234;2023-04-03T17:11:32;90;88;
79141;PMS5003;68550;-26.480;29.234;2023-04-03T17:13:55;111;110;
79141;PMS5003;68550;-26.480;29.234;2023-04-03T17:16:21;154;149;
79141;PMS5003;68550;-26.480;29.234;2023-04-03T17:18:52;165;160;
79141;PMS5003;68550;-26.480;29.234;2023-04-03T17:23:39;171;166;
79141;PMS5003;68550;-26.480;29.234;2023-04-03T17:26:03;171;168;
79141;PMS5003;68550;-26.480;29.234;2023-04-03T17:28:27;160;160;
79141;PMS5003;68550;-26.480;29.234;2023-04-03T17:30:52;157;153;
79141;PMS5003;68550;-26.480;29.234;2023-04-03T17:33:18;156;155;
79141;PMS5003;68550;-26.480;29.234;2023-04-03T17:35:51;166;162;
79141;PMS5003;68550;-26.480;29.234;2023-04-03T17:38:09;150;148;
79141;PMS5003;68550;-26.480;29.234;2023-04-03T17:40:37;146;146;
79141;PMS5003;68550;-26.480;29.234;2023-04-03T17:43:00;145;145;
79141;PMS5003;68550;-26.480;29.234;2023-04-03T17:45:25;142;140;
79141;PMS5003;68550;-26.480;29.234;2023-04-03T17:47:53;144;141;
79141;PMS5003;68550;-26.480;29.234;2023-04-03T17:50:17;131;130;
79141;PMS5003;68550;-26.480;29.234;2023-04-03T17:52:42;121;120;
79141;PMS5003;68550;-26.480;29.234;2023-04-03T17:55:08;126;123;
79141;PMS5003;68550;-26.480;29.234;2023-04-03T17:57:33;101;100;
79141;PMS5003;68550;-26.480;29.234;2023-04-03T17:59:59;99;97;
79141;PMS5003;68550;-26.480;29.234;2023-04-03T18:02:25;103;103;
79141;PMS5003;68550;-26.480;29.234;2023-04-03T18:04:50;85;85;
79141;PMS5003;68550;-26.480;29.234;2023-04-03T18:09:40;78;77;
79141;PMS5003;68550;-26.480;29.234;2023-04-03T18:17:02;71;70;
79141;PMS5003;68550;-26.480;29.234;2023-04-03T18:19:22;69;69;
79141;PMS5003;68550;-26.480;29.234;2023-04-03T18:21:47;76;76;
79141;PMS5003;68550;-26.480;29.234;2023-04-03T18:24:13;71;71;
79141;PMS5003;68550;-26.480;29.234;2023-04-03T18:38:45;55;55;
79141;PMS5003;68550;-26.480;29.234;2023-04-03T18:41:10;57;56;
79141;PMS5003;68550;-26.480;29.234;2023-04-03T18:43:36;44;44;
79141;PMS5003;68550;-26.480;29.234;2023-04-03T18:46:01;47;47;
79141;PMS5003;68550;-26.480;29.234;2023-04-03T19:00:36;33;33;
79141;PMS5003;68550;-26.480;29.234;2023-04-03T19:06:22;22;22;
79141;PMS5003;68550;-26.480;29.234;2023-04-03T19:08:42;36;36;
79141;PMS5003;68550;-26.480;29.234;2023-04-03T19:11:08;39;39;
79141;PMS5003;68550;-26.480;29.234;2023-04-03T19:13:33;35;35;
79141;PMS5003;68550;-26.480;29.234;2023-04-03T19:15:58;40;40;
79141;PMS5003;68550;-26.480;29.234;2023-04-03T19:18:24;33;33;
79141;PMS5003;68550;-26.480;29.234;2023-04-03T19:20:49;28;28;
79141;PMS5003;68550;-26.480;29.234;2023-04-03T19:23:15;29;27;
79141;PMS5003;68550;-26.480;29.234;2023-04-03T19:25:40;27;27;
79141;PMS5003;68550;-26.480;29.234;2023-04-03T19:28:05;27;26;
79141;PMS5003;68550;-26.480;29.234;2023-04-03T19:30:31;26;25;
79141;PMS5003;68550;-26.480;29.234;2023-04-03T19:33:05;28;27;
79141;PMS5003;68550;-26.480;29.234;2023-04-03T19:35:23;25;25;
79141;PMS5003;68550;-26.480;29.234;2023-04-03T19:37:47;24;24;
79141;PMS5003;68550;-26.480;29.234;2023-04-03T19:40:12;27;27;
79141;PMS5003;68550;-26.480;29.234;2023-04-03T19:42:44;25;23;
79141;PMS5003;68550;-26.480;29.234;2023-04-03T19:45:02;24;23;
79141;PMS5003;68550;-26.480;29.234;2023-04-03T19:47:28;24;24;
79141;PMS5003;68550;-26.480;29.234;2023-04-03T19:49:53;23;22;
79141;PMS5003;68550;-26.480;29.234;2023-04-03T19:54:44;18;18;
79141;PMS5003;68550;-26.480;29.234;2023-04-03T19:59:34;19;19;
79141;PMS5003;68550;-26.480;29.234;2023-04-03T20:02:01;21;21;
79141;PMS5003;68550;-26.480;29.234;2023-04-03T20:04:25;17;17;
79141;PMS5003;68550;-26.480;29.234;2023-04-03T20:06:50;17;17;
79141;PMS5003;68550;-26.480;29.234;2023-04-03T20:09:16;18;18;
79141;PMS5003;68550;-26.480;29.234;2023-04-03T20:11:42;21;20;
79141;PMS5003;68550;-26.480;29.234;2023-04-03T20:23:47;21;20;
79141;PMS5003;68550;-26.480;29.234;2023-04-03T20:28:38;21;21;
79141;PMS5003;68550;-26.480;29.234;2023-04-03T20:33:28;23;23;
79141;PMS5003;68550;-26.480;29.234;2023-04-03T20:50:25;14;14;
79141;PMS5003;68550;-26.480;29.234;2023-04-03T20:52:50;16;15;
79141;PMS5003;68550;-26.480;29.234;2023-04-03T20:55:16;14;14;
79141;PMS5003;68550;-26.480;29.234;2023-04-03T20:57:41;13;13;
79141;PMS5003;68550;-26.480;29.234;2023-04-03T21:00:07;16;15;
79141;PMS5003;68550;-26.480;29.234;2023-04-03T21:02:32;14;14;
79141;PMS5003;68550;-26.480;29.234;2023-04-03T21:04:57;14;14;
79141;PMS5003;68550;-26.480;29.234;2023-04-03T21:19:29;13;13;
79141;PMS5003;68550;-26.480;29.234;2023-04-03T21:29:10;17;17;
79141;PMS5003;68550;-26.480;29.234;2023-04-03T21:34:01;12;12;
79141;PMS5003;68550;-26.480;29.234;2023-04-03T21:36:26;10;10;
79141;PMS5003;68550;-26.480;29.234;2023-04-03T21:43:44;12;12;
79141;PMS5003;68550;-26.480;29.234;2023-04-03T21:46:08;10;10;
79141;PMS5003;68550;-26.480;29.234;2023-04-03T21:48:34;9;9;
79141;PMS5003;68550;-26.480;29.234;2023-04-03T21:51:02;7;7;
79141;PMS5003;68550;-26.480;29.234;2023-04-03T21:53:24;9;9;
79141;PMS5003;68550;-26.480;29.234;2023-04-03T21:55:52;10;10;
79141;PMS5003;68550;-26.480;29.234;2023-04-03T21:58:14;11;11;
79141;PMS5003;68550;-26.480;29.234;2023-04-03T22:00:39;10;9;
79141;PMS5003;68550;-26.480;29.234;2023-04-03T22:03:05;11;10;
79141;PMS5003;68550;-26.480;29.234;2023-04-03T22:05:30;10;10;
79141;PMS5003;68550;-26.480;29.234;2023-04-03T22:07:56;11;10;
79141;PMS5003;68550;-26.480;29.234;2023-04-03T22:10:21;7;7;
79141;PMS5003;68550;-26.480;29.234;2023-04-03T22:20:02;10;10;
79141;PMS5003;68550;-26.480;29.234;2023-04-03T22:22:28;8;8;
79141;PMS5003;68550;-26.480;29.234;2023-04-03T22:32:09;9;9;
79141;PMS5003;68550;-26.480;29.234;2023-04-03T22:34:34;6;6;
79141;PMS5003;68550;-26.480;29.234;2023-04-03T22:37:00;8;8;
79141;PMS5003;68550;-26.480;29.234;2023-04-03T22:49:13;7;7;
79141;PMS5003;68550;-26.480;29.234;2023-04-03T22:51:32;6;6;
79141;PMS5003;68550;-26.480;29.234;2023-04-03T22:53:59;8;7;
79141;PMS5003;68550;-26.480;29.234;2023-04-03T22:56:23;4;4;
79141;PMS5003;68550;-26.480;29.234;2023-04-03T22:58:48;6;6;
79141;PMS5003;68550;-26.480;29.234;2023-04-03T23:03:39;7;7;
79141;PMS5003;68550;-26.480;29.234;2023-04-03T23:06:05;8;8;
79141;PMS5003;68550;-26.480;29.234;2023-04-03T23:08:32;5;4;
79141;PMS5003;68550;-26.480;29.234;2023-04-03T23:10:55;6;6;
79141;PMS5003;68550;-26.480;29.234;2023-04-03T23:37:34;3;3;
79141;PMS5003;68550;-26.480;29.234;2023-04-03T23:39:59;7;6;
79141;PMS5003;68550;-26.480;29.234;2023-04-03T23:42:25;5;5;
79141;PMS5003;68550;-26.480;29.234;2023-04-03T23:44:50;6;6;
79141;PMS5003;68550;-26.480;29.234;2023-04-03T23:47:15;6;6;
79141;PMS5003;68550;-26.480;29.234;2023-04-03T23:59:22;6;5;
